createdAt,value
2023-05-04T05:03:07.490Z,25.00
2023-05-04T05:04:08.466Z,25.00
2023-05-04T05:05:08.684Z,25.00
2023-05-04T05:06:08.533Z,25.00
2023-05-04T05:07:08.576Z,25.00
2023-05-04T05:08:08.560Z,25.00
2023-05-04T05:09:08.599Z,0.00
2023-05-04T05:10:07.872Z,0.00
2023-05-04T05:11:08.703Z,0.00
2023-05-04T05:12:08.701Z,0.00
2023-05-04T05:13:08.859Z,0.00
2023-05-04T05:14:07.752Z,0.00
2023-05-04T05:15:08.739Z,0.00
2023-05-04T05:16:07.779Z,0.00
2023-05-04T05:17:07.781Z,0.00
2023-05-04T05:18:07.812Z,0.00
2023-05-04T05:19:07.922Z,0.00
2023-05-04T05:20:07.839Z,0.00
2023-05-04T05:21:08.769Z,0.00
2023-05-04T05:22:07.752Z,0.00
2023-05-04T05:23:08.749Z,0.00
2023-05-04T05:24:07.757Z,0.00
2023-05-04T05:25:08.743Z,0.00
2023-05-04T05:26:07.736Z,22.74
2023-05-04T05:27:08.728Z,24.74
2023-05-04T05:28:07.731Z,25.72
2023-05-04T05:29:07.730Z,25.00
2023-05-04T05:30:08.748Z,27.29
2023-05-04T05:31:07.845Z,25.00
2023-05-04T05:32:07.713Z,26.44
2023-05-04T05:33:08.770Z,24.12
2023-05-04T05:34:07.719Z,25.51
2023-05-04T05:35:08.772Z,30.07
2023-05-04T05:36:08.768Z,25.00
2023-05-04T05:37:08.796Z,25.57
2023-05-04T05:38:08.818Z,28.93
2023-05-04T05:39:08.858Z,26.93
2023-05-04T05:40:08.203Z,25.11
2023-05-04T05:41:07.884Z,25.25
2023-05-04T05:42:07.909Z,26.12
2023-05-04T05:43:07.954Z,24.71
2023-05-04T05:44:09.709Z,25.68
2023-05-04T05:45:07.976Z,25.00
2023-05-04T05:46:08.959Z,27.24
2023-05-04T05:47:08.932Z,26.49
2023-05-04T05:48:08.967Z,26.22
2023-05-04T05:49:07.931Z,25.86
2023-05-04T05:50:08.910Z,26.46
2023-05-04T05:51:08.915Z,25.00
2023-05-04T05:52:08.880Z,25.34
2023-05-04T05:53:08.891Z,28.43
2023-05-04T05:54:08.868Z,25.00
2023-05-04T05:55:07.870Z,25.99
2023-05-04T05:56:08.885Z,29.54
2023-05-04T05:57:07.850Z,25.33
2023-05-04T05:58:08.848Z,28.56
2023-05-04T05:59:07.836Z,27.98
2023-05-04T06:00:08.830Z,25.00
2023-05-04T06:01:07.823Z,29.28
2023-05-04T06:02:07.913Z,28.80
2023-05-04T06:03:07.900Z,26.12
2023-05-04T06:04:08.890Z,29.17
2023-05-04T06:05:08.812Z,25.55
2023-05-04T06:06:08.786Z,27.25
2023-05-04T06:07:07.836Z,26.40
2023-05-04T06:08:08.778Z,25.29
2023-05-04T06:09:07.786Z,29.86
2023-05-04T06:10:08.847Z,26.67
2023-05-04T06:11:07.760Z,26.88
2023-05-04T06:12:07.762Z,26.28
2023-05-04T06:13:07.777Z,27.01
2023-05-04T06:14:08.747Z,28.55
2023-05-04T06:15:08.739Z,28.68
2023-05-04T06:16:07.745Z,31.16
2023-05-04T06:17:07.719Z,28.53
2023-05-04T06:18:07.827Z,29.09
2023-05-04T06:19:07.704Z,33.53
2023-05-04T06:20:08.685Z,35.22
2023-05-04T06:21:08.705Z,35.73
2023-05-04T06:22:08.694Z,34.44
2023-05-04T06:23:07.697Z,32.55
2023-05-04T06:24:08.730Z,35.07
2023-05-04T06:25:08.353Z,37.07
2023-05-04T06:26:07.868Z,40.53
2023-05-04T06:27:08.022Z,36.23
2023-05-04T06:28:07.970Z,37.42
2023-05-04T06:29:08.027Z,39.92
2023-05-04T06:30:08.494Z,40.25
2023-05-04T06:31:09.247Z,44.19
2023-05-04T06:32:09.468Z,44.76
2023-05-04T06:33:08.334Z,44.88
2023-05-04T06:34:08.326Z,43.09
2023-05-04T06:35:08.373Z,42.58
2023-05-04T06:36:09.436Z,47.98
2023-05-04T06:37:08.496Z,41.99
2023-05-04T06:38:09.544Z,41.42
2023-05-04T06:39:09.609Z,43.91
2023-05-04T06:40:09.860Z,46.60
2023-05-04T06:41:09.708Z,51.18
2023-05-04T06:42:09.751Z,53.06
2023-05-04T06:43:08.834Z,52.23
2023-05-04T06:44:08.851Z,55.86
2023-05-04T06:45:09.929Z,54.01
2023-05-04T06:46:10.007Z,53.83
2023-05-04T06:47:09.062Z,55.83
2023-05-04T06:48:10.109Z,56.32
2023-05-04T06:49:10.127Z,60.51
2023-05-04T06:50:10.177Z,61.24
2023-05-04T06:51:10.228Z,58.99
2023-05-04T06:52:10.285Z,58.29
2023-05-04T06:53:09.336Z,56.49
2023-05-04T06:54:10.367Z,60.46
2023-05-04T06:55:09.497Z,67.49
2023-05-04T06:56:10.663Z,67.87
2023-05-04T06:57:09.516Z,67.40
2023-05-04T06:58:09.575Z,69.99
2023-05-04T06:59:10.596Z,70.36
2023-05-04T07:00:10.696Z,67.97
2023-05-04T07:01:09.729Z,69.90
2023-05-04T07:02:10.715Z,71.60
2023-05-04T07:03:10.831Z,72.75
2023-05-04T07:04:10.799Z,71.24
2023-05-04T07:05:09.838Z,73.67
2023-05-04T07:06:10.899Z,71.75
2023-05-04T07:07:10.900Z,73.25
2023-05-04T07:08:09.957Z,74.39
2023-05-04T07:09:10.985Z,74.19
2023-05-04T07:10:11.005Z,72.21
2023-05-04T07:11:11.196Z,70.73
2023-05-04T07:12:11.079Z,77.15
2023-05-04T07:13:10.199Z,76.27
2023-05-04T07:14:11.163Z,76.36
2023-05-04T07:15:11.194Z,78.27
2023-05-04T07:16:11.250Z,83.22
2023-05-04T07:17:10.319Z,80.26
2023-05-04T07:18:11.330Z,82.26
2023-05-04T07:19:11.352Z,80.59
2023-05-04T07:20:11.432Z,79.34
2023-05-04T07:22:11.452Z,82.68
2023-05-04T07:23:11.434Z,83.18
2023-05-04T07:24:11.435Z,82.75
2023-05-04T07:25:11.426Z,83.68
2023-05-04T07:26:11.445Z,85.49
2023-05-04T07:27:11.599Z,86.52
2023-05-04T07:28:11.406Z,88.04
2023-05-04T07:29:11.393Z,89.21
2023-05-04T07:30:10.396Z,85.15
2023-05-04T07:31:11.388Z,86.83
2023-05-04T07:32:11.522Z,86.04
2023-05-04T07:33:11.459Z,86.24
2023-05-04T07:34:10.367Z,87.13
2023-05-04T07:35:10.372Z,88.34
2023-05-04T07:36:11.351Z,88.59
2023-05-04T07:37:10.354Z,89.32
2023-05-04T07:38:10.325Z,90.35
2023-05-04T07:39:11.333Z,91.87
2023-05-04T07:40:11.316Z,92.96
2023-05-04T07:41:11.331Z,90.75
2023-05-04T07:42:11.334Z,92.60
2023-05-04T07:43:11.328Z,90.12
2023-05-04T07:44:11.283Z,96.54
2023-05-04T07:45:11.292Z,92.21
2023-05-04T07:46:11.318Z,96.21
2023-05-04T07:47:10.267Z,93.35
2023-05-04T07:48:11.326Z,92.03
2023-05-04T07:49:10.250Z,95.94
2023-05-04T07:50:11.253Z,98.51
2023-05-04T07:51:10.694Z,98.06
2023-05-04T07:52:10.335Z,93.54
2023-05-04T07:53:11.368Z,94.99
2023-05-04T07:54:10.423Z,96.08
2023-05-04T07:55:11.462Z,100.48
2023-05-04T07:56:10.563Z,94.37
2023-05-04T07:57:11.567Z,64.50
2023-05-04T07:58:10.626Z,73.15
2023-05-04T08:04:23.547Z,25.00
2023-05-04T08:05:23.479Z,25.00
2023-05-04T08:06:24.458Z,25.00
2023-05-04T08:07:24.457Z,25.00
2023-05-04T08:08:25.022Z,25.00
2023-05-04T08:09:24.487Z,26.35
2023-05-04T08:10:23.493Z,26.77
2023-05-04T08:11:24.436Z,26.34
2023-05-04T08:12:23.441Z,25.00
2023-05-04T08:13:24.432Z,26.01
2023-05-04T08:14:23.509Z,25.62
2023-05-04T08:15:24.408Z,26.54
2023-05-04T08:16:23.489Z,25.35
2023-05-04T08:17:23.440Z,29.80
2023-05-04T08:18:23.376Z,26.95
2023-05-04T08:19:23.374Z,29.71
2023-05-04T08:20:24.622Z,26.07
2023-05-04T08:21:24.366Z,25.04
2023-05-04T08:22:23.343Z,27.85
2023-05-04T08:23:24.361Z,33.19
2023-05-04T08:24:24.350Z,30.20
2023-05-04T08:25:24.327Z,33.19
2023-05-04T08:26:23.387Z,30.98
2023-05-04T08:27:24.422Z,25.00
2023-05-04T08:28:24.569Z,32.96
2023-05-04T08:29:23.583Z,25.00
2023-05-04T08:30:24.586Z,8.64
2023-05-04T08:31:24.685Z,35.45
2023-05-04T08:32:24.687Z,32.67
2023-05-04T08:33:24.722Z,26.94
2023-05-04T08:34:23.804Z,30.11
2023-05-04T08:35:24.837Z,44.39
2023-05-04T08:36:24.982Z,25.00
2023-05-04T08:37:23.951Z,44.15
2023-05-04T08:38:24.009Z,53.44
2023-05-04T08:39:24.060Z,43.76
2023-05-04T08:40:24.152Z,12.87
2023-05-04T08:41:24.176Z,0.00
2023-05-04T08:42:25.156Z,29.99
2023-05-04T08:43:25.259Z,49.07
2023-05-04T08:44:25.260Z,50.12
2023-05-04T08:45:25.334Z,48.92
2023-05-04T08:46:25.378Z,56.86
2023-05-04T08:47:25.449Z,62.73
2023-05-04T08:48:24.417Z,74.53
2023-05-04T08:49:25.433Z,41.96
2023-05-04T08:50:25.489Z,43.50
2023-05-04T08:51:24.581Z,50.01
2023-05-04T08:52:24.720Z,48.25
2023-05-04T08:53:24.594Z,37.43
2023-05-04T08:54:25.665Z,54.58
2023-05-04T08:55:25.702Z,42.62
2023-05-04T08:56:26.240Z,17.60
2023-05-04T08:57:24.781Z,23.41
2023-05-04T08:58:25.747Z,58.72
2023-05-04T08:59:25.781Z,38.44
2023-05-04T09:00:24.804Z,57.20
2023-05-04T09:01:25.935Z,74.30
2023-05-04T09:02:25.906Z,93.91
2023-05-04T09:03:24.993Z,107.06
2023-05-04T09:04:27.842Z,98.16
2023-05-04T09:05:24.937Z,98.29
2023-05-04T09:06:25.907Z,99.69
2023-05-04T09:07:24.897Z,105.61
2023-05-04T09:08:25.974Z,105.28
2023-05-04T09:09:25.980Z,110.73
2023-05-04T09:10:28.178Z,94.00
2023-05-04T09:11:25.868Z,89.97
2023-05-04T09:12:25.858Z,97.03
2023-05-04T09:13:25.848Z,100.06
2023-05-04T09:14:25.848Z,109.86
2023-05-04T09:15:24.826Z,122.78
2023-05-04T09:16:25.020Z,99.40
2023-05-04T09:17:26.269Z,92.52
2023-05-04T09:18:25.867Z,99.75
2023-05-04T09:19:25.798Z,97.89
2023-05-04T09:20:25.787Z,97.08
2023-05-04T09:21:25.867Z,110.95
2023-05-04T09:22:25.430Z,108.94
2023-05-04T09:23:25.798Z,105.03
2023-05-04T09:24:25.803Z,87.23
2023-05-04T09:25:25.772Z,110.41
2023-05-04T09:26:25.755Z,117.76
2023-05-04T09:27:25.801Z,125.74
2023-05-04T09:28:25.764Z,118.07
2023-05-04T09:29:25.901Z,106.94
2023-05-04T09:30:24.890Z,108.84
2023-05-04T09:31:25.124Z,59.23
2023-05-04T09:32:26.060Z,102.46
2023-05-04T09:33:26.025Z,111.58
2023-05-04T09:34:26.083Z,89.47
2023-05-04T09:35:32.413Z,101.85
2023-05-04T09:36:26.127Z,95.88
2023-05-04T09:37:25.163Z,102.84
2023-05-04T09:38:26.111Z,93.42
2023-05-04T09:39:25.105Z,108.23
2023-05-04T09:40:26.230Z,125.93
2023-05-04T09:41:26.090Z,125.07
2023-05-04T09:42:26.088Z,81.77
2023-05-04T09:43:25.096Z,71.02
2023-05-04T09:44:32.079Z,106.72
2023-05-04T09:45:26.057Z,107.73
2023-05-04T09:46:26.078Z,111.11
2023-05-04T09:47:26.252Z,120.40
2023-05-04T09:48:25.044Z,141.15
2023-05-04T09:49:25.085Z,179.29
2023-05-04T09:50:25.052Z,187.61
2023-05-04T09:51:25.015Z,175.35
2023-05-04T09:52:26.231Z,161.98
2023-05-04T09:53:26.023Z,166.76
2023-05-04T09:54:25.996Z,170.20
2023-05-04T09:55:25.989Z,188.92
2023-05-04T09:56:25.034Z,194.35
2023-05-04T09:57:25.008Z,209.33
2023-05-04T09:58:25.001Z,188.49
2023-05-04T09:59:25.955Z,187.27
2023-05-04T10:00:24.967Z,192.21
2023-05-04T10:01:24.997Z,154.96
2023-05-04T10:02:26.020Z,165.00
2023-05-04T10:03:25.998Z,169.75
2023-05-04T10:04:25.938Z,143.37
2023-05-04T10:05:25.950Z,110.89
2023-05-04T10:06:25.911Z,114.97
2023-05-04T10:07:25.914Z,99.97
2023-05-04T10:08:25.930Z,92.72
2023-05-04T10:09:25.893Z,127.20
2023-05-04T10:10:25.879Z,138.02
2023-05-04T10:11:24.872Z,156.14
2023-05-04T10:12:25.968Z,174.94
2023-05-04T10:13:25.857Z,197.06
2023-05-04T10:14:24.864Z,178.82
2023-05-04T10:15:24.932Z,153.23
2023-05-04T10:16:25.981Z,166.02
2023-05-04T10:17:25.041Z,128.40
2023-05-04T10:18:26.086Z,115.55
2023-05-04T10:19:25.086Z,116.58
2023-05-04T10:20:25.148Z,127.64
2023-05-04T10:21:26.183Z,156.53
2023-05-04T10:22:26.177Z,154.31
2023-05-04T10:23:26.196Z,99.69
2023-05-04T10:24:25.206Z,126.57
2023-05-04T10:25:26.232Z,117.57
2023-05-04T10:26:26.265Z,141.11
2023-05-04T10:27:25.326Z,116.43
2023-05-04T10:28:26.637Z,109.06
2023-05-04T10:29:26.392Z,111.87
2023-05-04T10:30:26.450Z,111.11
2023-05-04T10:31:26.534Z,124.41
2023-05-04T10:32:26.564Z,101.75
2023-05-04T10:33:26.520Z,47.16
2023-05-04T10:34:26.517Z,27.41
2023-05-04T10:35:26.561Z,48.50
2023-05-04T10:36:26.558Z,75.39
2023-05-04T10:37:25.575Z,78.41
2023-05-04T10:38:25.581Z,69.32
2023-05-04T10:39:25.589Z,28.32
2023-05-04T10:40:25.620Z,54.53
2023-05-04T10:41:25.622Z,24.36
2023-05-04T10:42:26.779Z,44.82
2023-05-04T10:43:25.639Z,37.37
2023-05-04T10:44:26.759Z,51.25
2023-05-04T10:45:26.736Z,65.82
2023-05-04T10:46:25.701Z,84.60
2023-05-04T10:47:26.781Z,60.22
2023-05-04T10:48:25.708Z,59.32
2023-05-04T10:49:25.726Z,60.58
2023-05-04T10:50:26.758Z,18.69
2023-05-04T10:51:35.738Z,21.62
2023-05-04T10:52:26.779Z,21.76
2023-05-04T10:53:26.780Z,30.61
2023-05-04T10:54:26.776Z,47.71
2023-05-04T10:55:25.753Z,49.46
2023-05-04T10:56:25.771Z,35.19
2023-05-04T10:57:26.748Z,60.62
2023-05-04T10:58:26.720Z,117.73
2023-05-04T10:59:26.724Z,96.15
2023-05-04T11:00:26.776Z,46.81
2023-05-04T11:01:25.768Z,73.32
2023-05-04T11:02:25.765Z,108.49
2023-05-04T11:03:26.822Z,136.16
2023-05-04T11:04:25.697Z,154.83
2023-05-04T11:05:25.685Z,161.66
2023-05-04T11:06:26.679Z,163.25
2023-05-04T11:07:25.691Z,158.74
2023-05-04T11:08:25.664Z,173.23
2023-05-04T11:09:26.666Z,160.70
2023-05-04T11:10:26.649Z,87.16
2023-05-04T11:11:26.651Z,76.37
2023-05-04T11:12:26.704Z,73.22
2023-05-04T11:13:25.642Z,121.61
2023-05-04T11:14:26.623Z,132.78
2023-05-04T11:15:25.605Z,133.62
2023-05-04T11:16:25.704Z,112.72
2023-05-04T11:17:28.530Z,108.15
2023-05-04T11:18:26.676Z,100.41
2023-05-04T11:19:25.580Z,108.83
2023-05-04T11:20:26.625Z,110.56
2023-05-04T11:21:26.631Z,66.72
2023-05-04T11:22:25.638Z,85.95
2023-05-04T11:23:25.594Z,130.38
2023-05-04T11:24:25.580Z,80.51
2023-05-04T11:25:25.638Z,53.66
2023-05-04T11:26:25.521Z,56.81
2023-05-04T11:27:26.545Z,52.06
2023-05-04T11:28:25.563Z,54.61
2023-05-04T11:29:25.564Z,39.50
2023-05-04T11:30:26.594Z,65.96
2023-05-04T11:31:25.512Z,67.83
2023-05-04T11:32:26.767Z,82.82
2023-05-04T11:33:25.468Z,22.45
2023-05-04T11:34:25.480Z,25.44
2023-05-04T11:35:25.459Z,25.00
2023-05-04T11:36:25.551Z,0.00
2023-05-04T11:37:26.821Z,39.00
2023-05-04T11:38:25.504Z,33.21
2023-05-04T11:39:26.521Z,41.07
2023-05-04T11:40:25.545Z,59.82
2023-05-04T11:41:25.437Z,21.53
2023-05-04T11:42:25.451Z,50.16
2023-05-04T11:43:25.404Z,25.10
2023-05-04T11:44:26.446Z,77.26
2023-05-04T11:45:26.452Z,76.73
2023-05-04T11:46:26.450Z,54.26
2023-05-04T11:47:25.478Z,42.95
2023-05-04T11:48:25.441Z,46.77
2023-05-04T11:49:25.387Z,99.93
2023-05-04T11:50:26.429Z,117.77
2023-05-04T11:51:25.430Z,192.98
2023-05-04T11:52:25.362Z,221.35
2023-05-04T11:53:26.401Z,178.48
2023-05-04T11:54:26.405Z,106.87
2023-05-04T11:55:26.317Z,208.14
2023-05-04T11:56:25.316Z,177.36
2023-05-04T11:57:26.355Z,152.00
2023-05-04T11:58:25.376Z,245.19
2023-05-04T11:59:25.369Z,261.44
2023-05-04T12:00:25.276Z,239.51
2023-05-04T12:01:26.329Z,213.94
2023-05-04T12:02:25.407Z,165.98
2023-05-04T12:03:35.464Z,107.89
2023-05-04T12:04:26.407Z,96.78
2023-05-04T12:05:25.335Z,79.28
2023-05-04T12:06:26.279Z,114.51
2023-05-04T12:07:25.291Z,133.57
2023-05-04T12:08:26.332Z,133.43
2023-05-04T12:09:25.209Z,196.48
2023-05-04T12:10:25.291Z,196.18
2023-05-04T12:11:25.245Z,145.76
2023-05-04T12:12:25.285Z,96.55
2023-05-04T12:13:25.297Z,96.47
2023-05-04T12:14:26.175Z,96.46
2023-05-04T12:15:25.176Z,41.91
2023-05-04T12:16:25.231Z,71.94
2023-05-04T12:17:26.293Z,74.57
2023-05-04T12:18:25.150Z,36.82
2023-05-04T12:19:25.186Z,53.05
2023-05-04T12:20:26.162Z,35.62
2023-05-04T12:21:25.172Z,48.94
2023-05-04T12:22:26.210Z,24.37
2023-05-04T12:23:26.153Z,32.46
2023-05-04T12:24:25.165Z,41.67
2023-05-04T12:25:25.153Z,24.70
2023-05-04T12:26:26.107Z,20.24
2023-05-04T12:27:25.092Z,11.60
2023-05-04T12:28:26.173Z,42.39
2023-05-04T12:29:25.079Z,29.34
2023-05-04T12:30:25.124Z,39.83
2023-05-04T12:31:25.750Z,81.02
2023-05-04T12:32:25.118Z,89.95
2023-05-04T12:33:26.175Z,37.79
2023-05-04T12:34:25.087Z,41.60
2023-05-04T12:35:25.106Z,22.89
2023-05-04T12:36:25.115Z,39.74
2023-05-04T12:37:26.115Z,47.49
2023-05-04T12:38:25.113Z,39.46
2023-05-04T12:39:25.080Z,97.38
2023-05-04T12:40:28.757Z,105.70
2023-05-04T12:41:25.068Z,54.22
2023-05-04T12:42:25.060Z,89.76
2023-05-04T12:43:25.060Z,52.46
2023-05-04T12:44:24.963Z,47.18
2023-05-04T12:45:26.011Z,85.45
2023-05-04T12:46:25.073Z,98.03
2023-05-04T12:47:25.093Z,106.57
2023-05-04T12:48:25.011Z,79.28
2023-05-04T12:49:25.018Z,64.69
2023-05-04T12:50:24.970Z,67.79
2023-05-04T12:51:24.983Z,39.43
2023-05-04T12:52:24.973Z,74.34
2023-05-04T12:53:26.118Z,37.81
2023-05-04T12:54:25.024Z,46.06
2023-05-04T12:55:25.536Z,31.46
2023-05-04T12:56:24.873Z,69.79
2023-05-04T12:57:25.956Z,21.50
2023-05-04T12:58:24.932Z,32.65
2023-05-04T12:59:24.921Z,17.00
2023-05-04T13:00:24.854Z,42.94
2023-05-04T13:01:24.899Z,33.60
2023-05-04T13:02:24.908Z,23.60
2023-05-04T13:03:24.998Z,33.06
2023-05-04T13:04:24.818Z,49.20
2023-05-04T13:05:25.812Z,36.90
2023-05-04T13:06:25.848Z,31.17
2023-05-04T13:07:24.853Z,37.42
2023-05-04T13:08:24.881Z,34.43
2023-05-04T13:09:24.816Z,39.45
2023-05-04T13:10:24.800Z,23.82
2023-05-04T13:11:24.810Z,42.51
2023-05-04T13:12:24.790Z,55.04
2023-05-04T13:13:24.839Z,66.84
2023-05-04T13:14:24.816Z,54.07
2023-05-04T13:15:24.784Z,48.11
2023-05-04T13:16:24.849Z,49.78
2023-05-04T13:17:24.755Z,25.20
2023-05-04T13:18:25.715Z,29.75
2023-05-04T13:19:24.760Z,29.21
2023-05-04T13:20:25.733Z,34.75
2023-05-04T13:21:24.687Z,54.37
2023-05-04T13:22:25.710Z,68.46
2023-05-04T13:23:25.911Z,57.42
2023-05-04T13:24:24.863Z,50.28
2023-05-04T13:25:24.661Z,53.71
2023-05-04T13:26:24.663Z,38.28
2023-05-04T13:27:25.723Z,48.00
2023-05-04T13:28:24.704Z,41.59
2023-05-04T13:29:25.794Z,44.68
2023-05-04T13:30:24.882Z,54.04
2023-05-04T13:31:24.879Z,43.10
2023-05-04T13:32:24.972Z,42.85
2023-05-04T13:33:30.166Z,39.49
2023-05-04T13:34:25.946Z,34.42
2023-05-04T13:35:24.922Z,41.16
2023-05-04T13:36:24.986Z,44.35
2023-05-04T13:37:24.907Z,53.83
2023-05-04T13:38:25.971Z,76.28
2023-05-04T13:39:24.892Z,67.32
2023-05-04T13:40:24.986Z,68.98
2023-05-04T13:41:24.911Z,54.08
2023-05-04T13:42:24.918Z,50.72
2023-05-04T13:43:24.936Z,48.88
2023-05-04T13:44:24.856Z,58.25
2023-05-04T13:45:25.914Z,44.10
2023-05-04T13:46:25.948Z,65.49
2023-05-04T13:47:24.886Z,60.27
2023-05-04T13:48:24.946Z,56.68
2023-05-04T13:49:24.883Z,58.49
2023-05-04T13:50:24.905Z,53.98
2023-05-04T13:51:26.033Z,41.44
2023-05-04T13:52:25.974Z,52.48
2023-05-04T13:53:26.111Z,47.64
2023-05-04T13:54:26.142Z,43.38
2023-05-04T13:55:25.168Z,41.29
2023-05-04T13:56:25.216Z,51.24
2023-05-04T13:57:25.187Z,92.45
2023-05-04T13:58:25.228Z,94.48
2023-05-04T13:59:25.176Z,89.53
2023-05-04T14:00:26.217Z,65.71
2023-05-04T14:01:26.305Z,64.34
2023-05-04T14:02:25.270Z,57.80
2023-05-04T14:03:25.284Z,38.47
2023-05-04T14:04:25.162Z,42.56
2023-05-04T14:05:26.199Z,37.27
2023-05-04T14:06:25.207Z,47.79
2023-05-04T14:07:25.291Z,53.42
2023-05-04T14:08:25.247Z,50.15
2023-05-04T14:09:25.353Z,47.73
2023-05-04T14:10:26.335Z,39.03
2023-05-04T14:11:26.428Z,32.87
2023-05-04T14:12:25.429Z,28.62
2023-05-04T14:13:26.376Z,31.59
2023-05-04T14:14:25.465Z,28.62
2023-05-04T14:15:25.532Z,34.33
2023-05-04T14:16:25.533Z,40.44
2023-05-04T14:17:25.547Z,52.34
2023-05-04T14:18:26.569Z,61.57
2023-05-04T14:19:26.654Z,49.26
2023-05-04T14:20:25.684Z,34.10
2023-05-04T14:21:26.642Z,61.58
2023-05-04T14:22:25.670Z,48.46
2023-05-04T14:23:25.824Z,41.03
2023-05-04T14:24:25.980Z,42.31
2023-05-04T14:25:25.876Z,50.85
2023-05-04T14:26:25.795Z,54.64
2023-05-04T14:27:25.880Z,49.64
2023-05-04T14:28:25.999Z,37.96
2023-05-04T14:29:26.018Z,37.29
2023-05-04T14:30:26.078Z,55.89
2023-05-04T14:31:26.176Z,57.34
2023-05-04T14:32:27.147Z,63.18
2023-05-04T14:33:26.086Z,61.47
2023-05-04T14:34:30.182Z,47.75
2023-05-04T14:35:26.128Z,47.93
2023-05-04T14:36:26.170Z,48.98
2023-05-04T14:37:27.135Z,37.10
2023-05-04T14:38:26.114Z,31.61
2023-05-04T14:39:26.173Z,26.25
2023-05-04T14:40:26.150Z,22.39
2023-05-04T14:41:26.046Z,25.83
2023-05-04T14:42:27.036Z,26.87
2023-05-04T14:43:27.027Z,26.26
2023-05-04T14:44:27.115Z,29.86
2023-05-04T14:45:26.181Z,36.34
2023-05-04T14:46:26.164Z,39.87
2023-05-04T14:47:27.078Z,36.26
2023-05-04T14:48:26.992Z,31.90
2023-05-04T14:49:36.748Z,38.63
2023-05-04T14:50:26.984Z,38.69
2023-05-04T14:51:26.041Z,37.24
2023-05-04T14:52:26.080Z,33.95
2023-05-04T14:53:26.042Z,42.69
2023-05-04T14:54:26.043Z,42.51
2023-05-04T14:55:27.050Z,35.84
2023-05-04T14:56:26.040Z,33.73
2023-05-04T14:57:26.004Z,34.48
2023-05-04T14:58:27.017Z,63.39
2023-05-04T14:59:25.914Z,47.48
2023-05-04T15:00:26.077Z,54.18
2023-05-04T15:01:26.056Z,55.43
2023-05-04T15:02:26.043Z,61.11
2023-05-04T15:03:27.252Z,83.64
2023-05-04T15:04:26.048Z,115.62
2023-05-04T15:05:27.118Z,133.77
2023-05-04T15:06:27.197Z,141.88
2023-05-04T15:07:26.350Z,137.62
2023-05-04T15:08:27.254Z,118.11
2023-05-04T15:09:27.311Z,139.65
2023-05-04T15:10:26.414Z,144.13
2023-05-04T15:11:26.429Z,130.16
2023-05-04T15:12:27.509Z,127.81
2023-05-04T15:13:27.457Z,132.38
2023-05-04T15:14:27.584Z,149.19
2023-05-04T15:15:26.516Z,180.44
2023-05-04T15:16:27.648Z,176.30
2023-05-04T15:17:27.585Z,159.49
2023-05-04T15:18:27.579Z,169.92
2023-05-04T15:19:26.669Z,185.76
2023-05-04T15:20:26.685Z,170.77
2023-05-04T15:21:26.612Z,145.18
2023-05-04T15:22:26.655Z,159.89
2023-05-04T15:23:27.684Z,157.15
2023-05-04T15:24:27.698Z,157.67
2023-05-04T15:25:26.793Z,137.27
2023-05-04T15:26:26.765Z,153.04
2023-05-04T15:27:27.804Z,178.09
2023-05-04T15:28:26.857Z,181.95
2023-05-04T15:29:26.843Z,183.44
